sensor_id;sensor_type;location;lat;lon;timestamp;pressure;altitude;pressure_sealevel;temperature;humidity
4598;BME280;62772;48.646;8.906;2024-01-16T00:02:49;95671.88;;;-3.59;100.00
4598;BME280;62772;48.646;8.906;2024-01-16T00:07:49;95661.22;;;-3.57;100.00
4598;BME280;62772;48.646;8.906;2024-01-16T00:12:49;95668.19;;;-3.46;100.00
4598;BME280;62772;48.646;8.906;2024-01-16T00:17:50;95668.00;;;-3.39;100.00
4598;BME280;62772;48.646;8.906;2024-01-16T00:22:51;95666.28;;;-3.51;100.00
4598;BME280;62772;48.646;8.906;2024-01-16T00:27:52;95664.06;;;-3.42;100.00
4598;BME280;62772;48.646;8.906;2024-01-16T00:32:52;95667.06;;;-3.33;100.00
4598;BME280;62772;48.646;8.906;2024-01-16T00:37:53;95666.09;;;-3.44;100.00
4598;BME280;62772;48.646;8.906;2024-01-16T00:42:53;95663.34;;;-3.54;100.00
4598;BME280;62772;48.646;8.906;2024-01-16T00:47:53;95667.53;;;-3.53;100.00
4598;BME280;62772;48.646;8.906;2024-01-16T00:52:54;95663.03;;;-3.58;100.00
4598;BME280;62772;48.646;8.906;2024-01-16T00:57:54;95670.59;;;-3.56;100.00
4598;BME280;62772;48.646;8.906;2024-01-16T01:02:55;95660.97;;;-3.56;100.00
4598;BME280;62772;48.646;8.906;2024-01-16T01:07:56;95661.38;;;-3.64;100.00
4598;BME280;62772;48.646;8.906;2024-01-16T01:12:56;95661.84;;;-3.50;100.00
4598;BME280;62772;48.646;8.906;2024-01-16T01:17:57;95664.53;;;-3.62;100.00
4598;BME280;62772;48.646;8.906;2024-01-16T01:22:57;95667.13;;;-3.62;100.00
4598;BME280;62772;48.646;8.906;2024-01-16T01:27:58;95672.50;;;-3.52;100.00
4598;BME280;62772;48.646;8.906;2024-01-16T01:32:59;95666.06;;;-3.32;100.00
4598;BME280;62772;48.646;8.906;2024-01-16T01:37:59;95670.75;;;-3.63;100.00
4598;BME280;62772;48.646;8.906;2024-01-16T01:43:20;95687.34;;;-3.69;100.00
4598;BME280;62772;48.646;8.906;2024-01-16T01:48:20;95674.88;;;-3.50;100.00
4598;BME280;62772;48.646;8.906;2024-01-16T01:53:21;95683.38;;;-3.43;100.00
4598;BME280;62772;48.646;8.906;2024-01-16T01:58:22;95691.59;;;-3.51;100.00
4598;BME280;62772;48.646;8.906;2024-01-16T02:03:23;95698.84;;;-3.70;100.00
4598;BME280;62772;48.646;8.906;2024-01-16T02:08:24;95700.81;;;-3.60;100.00
4598;BME280;62772;48.646;8.906;2024-01-16T02:13:24;95693.41;;;-3.52;100.00
4598;BME280;62772;48.646;8.906;2024-01-16T02:18:25;95699.81;;;-3.59;100.00
4598;BME280;62772;48.646;8.906;2024-01-16T02:23:29;95707.13;;;-3.73;100.00
4598;BME280;62772;48.646;8.906;2024-01-16T02:28:31;95686.91;;;-3.95;100.00
4598;BME280;62772;48.646;8.906;2024-01-16T02:33:31;95696.59;;;-3.78;100.00
4598;BME280;62772;48.646;8.906;2024-01-16T02:38:32;95704.84;;;-3.70;100.00
4598;BME280;62772;48.646;8.906;2024-01-16T02:43:32;95705.06;;;-3.71;100.00
4598;BME280;62772;48.646;8.906;2024-01-16T02:48:33;95704.28;;;-4.01;100.00
4598;BME280;62772;48.646;8.906;2024-01-16T02:53:33;95706.03;;;-4.18;100.00
4598;BME280;62772;48.646;8.906;2024-01-16T02:58:34;95698.84;;;-5.22;100.00
4598;BME280;62772;48.646;8.906;2024-01-16T03:03:34;95701.31;;;-5.39;100.00
4598;BME280;62772;48.646;8.906;2024-01-16T03:08:35;95710.06;;;-6.06;100.00
4598;BME280;62772;48.646;8.906;2024-01-16T03:13:36;95711.47;;;-6.41;100.00
4598;BME280;62772;48.646;8.906;2024-01-16T03:18:37;95710.19;;;-6.50;100.00
4598;BME280;62772;48.646;8.906;2024-01-16T03:23:38;95717.09;;;-6.62;100.00
4598;BME280;62772;48.646;8.906;2024-01-16T03:28:38;95709.38;;;-6.69;100.00
4598;BME280;62772;48.646;8.906;2024-01-16T03:33:40;95712.47;;;-6.60;100.00
4598;BME280;62772;48.646;8.906;2024-01-16T03:38:43;95711.16;;;-6.88;100.00
4598;BME280;62772;48.646;8.906;2024-01-16T03:43:43;95709.69;;;-7.02;100.00
4598;BME280;62772;48.646;8.906;2024-01-16T03:48:44;95707.63;;;-7.44;100.00
4598;BME280;62772;48.646;8.906;2024-01-16T03:53:45;95705.97;;;-7.63;100.00
4598;BME280;62772;48.646;8.906;2024-01-16T03:58:45;95701.56;;;-7.95;100.00
4598;BME280;62772;48.646;8.906;2024-01-16T04:03:46;95701.94;;;-8.30;100.00
4598;BME280;62772;48.646;8.906;2024-01-16T04:08:46;95702.00;;;-8.43;100.00
4598;BME280;62772;48.646;8.906;2024-01-16T04:13:47;95697.75;;;-8.31;100.00
4598;BME280;62772;48.646;8.906;2024-01-16T04:18:47;95701.13;;;-8.82;100.00
4598;BME280;62772;48.646;8.906;2024-01-16T04:23:48;95689.38;;;-8.85;100.00
4598;BME280;62772;48.646;8.906;2024-01-16T04:28:49;95682.09;;;-9.28;100.00
4598;BME280;62772;48.646;8.906;2024-01-16T04:33:49;95673.41;;;-8.62;100.00
4598;BME280;62772;48.646;8.906;2024-01-16T04:38:50;95680.13;;;-9.53;100.00
4598;BME280;62772;48.646;8.906;2024-01-16T04:43:50;95677.91;;;-9.69;100.00
4598;BME280;62772;48.646;8.906;2024-01-16T04:48:50;95685.66;;;-9.76;100.00
4598;BME280;62772;48.646;8.906;2024-01-16T04:53:51;95674.94;;;-9.66;100.00
4598;BME280;62772;48.646;8.906;2024-01-16T04:58:52;95678.69;;;-9.95;100.00
4598;BME280;62772;48.646;8.906;2024-01-16T05:03:53;95670.13;;;-10.09;100.00
4598;BME280;62772;48.646;8.906;2024-01-16T05:08:53;95661.59;;;-9.96;100.00
4598;BME280;62772;48.646;8.906;2024-01-16T05:13:53;95653.06;;;-9.77;100.00
4598;BME280;62772;48.646;8.906;2024-01-16T05:18:58;95647.72;;;-9.69;100.00
4598;BME280;62772;48.646;8.906;2024-01-16T05:23:58;95649.28;;;-9.41;100.00
4598;BME280;62772;48.646;8.906;2024-01-16T05:28:58;95641.91;;;-9.97;100.00
4598;BME280;62772;48.646;8.906;2024-01-16T05:33:59;95645.25;;;-10.17;100.00
4598;BME280;62772;48.646;8.906;2024-01-16T05:38:59;95639.91;;;-10.15;100.00
4598;BME280;62772;48.646;8.906;2024-01-16T05:44:00;95638.16;;;-10.01;100.00
4598;BME280;62772;48.646;8.906;2024-01-16T05:49:04;95639.94;;;-9.82;100.00
4598;BME280;62772;48.646;8.906;2024-01-16T05:54:04;95638.75;;;-9.86;100.00
4598;BME280;62772;48.646;8.906;2024-01-16T05:59:05;95636.75;;;-9.71;100.00
4598;BME280;62772;48.646;8.906;2024-01-16T06:04:05;95631.97;;;-9.34;100.00
4598;BME280;62772;48.646;8.906;2024-01-16T06:09:05;95639.78;;;-8.68;100.00
4598;BME280;62772;48.646;8.906;2024-01-16T06:14:07;95639.13;;;-8.18;100.00
4598;BME280;62772;48.646;8.906;2024-01-16T06:19:08;95640.09;;;-7.88;100.00
4598;BME280;62772;48.646;8.906;2024-01-16T06:24:08;95635.66;;;-7.49;100.00
4598;BME280;62772;48.646;8.906;2024-01-16T06:29:09;95632.94;;;-7.60;100.00
4598;BME280;62772;48.646;8.906;2024-01-16T06:34:09;95638.38;;;-7.69;100.00
4598;BME280;62772;48.646;8.906;2024-01-16T06:39:09;95640.34;;;-7.64;100.00
4598;BME280;62772;48.646;8.906;2024-01-16T06:44:13;95653.66;;;-7.60;100.00
4598;BME280;62772;48.646;8.906;2024-01-16T06:49:14;95653.66;;;-7.54;100.00
4598;BME280;62772;48.646;8.906;2024-01-16T06:54:14;95642.78;;;-7.44;100.00
4598;BME280;62772;48.646;8.906;2024-01-16T06:59:15;95645.69;;;-7.59;100.00
4598;BME280;62772;48.646;8.906;2024-01-16T07:04:16;95636.06;;;-7.52;100.00
4598;BME280;62772;48.646;8.906;2024-01-16T07:09:17;95636.00;;;-7.45;100.00
4598;BME280;62772;48.646;8.906;2024-01-16T07:14:20;95648.25;;;-7.52;100.00
4598;BME280;62772;48.646;8.906;2024-01-16T07:19:20;95643.91;;;-7.58;100.00
4598;BME280;62772;48.646;8.906;2024-01-16T07:24:21;95644.69;;;-7.58;100.00
4598;BME280;62772;48.646;8.906;2024-01-16T07:29:21;95642.91;;;-7.14;100.00
4598;BME280;62772;48.646;8.906;2024-01-16T07:34:22;95640.06;;;-7.31;100.00
4598;BME280;62772;48.646;8.906;2024-01-16T07:39:22;95636.88;;;-7.07;100.00
4598;BME280;62772;48.646;8.906;2024-01-16T07:44:23;95633.47;;;-6.89;100.00
4598;BME280;62772;48.646;8.906;2024-01-16T07:49:23;95640.97;;;-6.81;100.00
4598;BME280;62772;48.646;8.906;2024-01-16T07:54:24;95641.41;;;-6.84;100.00
4598;BME280;62772;48.646;8.906;2024-01-16T07:59:26;95643.41;;;-7.05;100.00
4598;BME280;62772;48.646;8.906;2024-01-16T08:04:27;95643.34;;;-7.17;100.00
4598;BME280;62772;48.646;8.906;2024-01-16T08:09:27;95637.94;;;-7.15;100.00
4598;BME280;62772;48.646;8.906;2024-01-16T08:14:28;95638.81;;;-6.66;100.00
4598;BME280;62772;48.646;8.906;2024-01-16T08:19:29;95637.03;;;-6.84;100.00
4598;BME280;62772;48.646;8.906;2024-01-16T08:24:31;95635.78;;;-6.63;100.00
4598;BME280;62772;48.646;8.906;2024-01-16T08:29:31;95650.44;;;-6.87;100.00
4598;BME280;62772;48.646;8.906;2024-01-16T08:34:32;95655.25;;;-6.90;100.00
4598;BME280;62772;48.646;8.906;2024-01-16T08:39:32;95663.13;;;-6.97;100.00
4598;BME280;62772;48.646;8.906;2024-01-16T08:44:34;95664.06;;;-6.91;100.00
4598;BME280;62772;48.646;8.906;2024-01-16T08:49:34;95660.16;;;-6.64;100.00
4598;BME280;62772;48.646;8.906;2024-01-16T08:54:35;95652.09;;;-6.56;100.00
4598;BME280;62772;48.646;8.906;2024-01-16T08:59:36;95656.28;;;-6.36;100.00
4598;BME280;62772;48.646;8.906;2024-01-16T09:04:36;95655.16;;;-6.28;100.00
4598;BME280;62772;48.646;8.906;2024-01-16T09:09:38;95659.63;;;-6.17;100.00
4598;BME280;62772;48.646;8.906;2024-01-16T09:14:38;95658.25;;;-6.20;100.00
4598;BME280;62772;48.646;8.906;2024-01-16T09:19:39;95662.78;;;-6.15;100.00
4598;BME280;62772;48.646;8.906;2024-01-16T09:24:39;95653.69;;;-5.94;100.00
4598;BME280;62772;48.646;8.906;2024-01-16T09:29:40;95651.19;;;-5.89;100.00
4598;BME280;62772;48.646;8.906;2024-01-16T09:34:40;95660.94;;;-5.84;100.00
4598;BME280;62772;48.646;8.906;2024-01-16T09:39:41;95659.50;;;-5.68;100.00
4598;BME280;62772;48.646;8.906;2024-01-16T09:44:43;95664.84;;;-5.63;100.00
4598;BME280;62772;48.646;8.906;2024-01-16T09:49:46;95655.13;;;-5.56;100.00
4598;BME280;62772;48.646;8.906;2024-01-16T09:54:46;95654.00;;;-5.48;100.00
4598;BME280;62772;48.646;8.906;2024-01-16T09:59:48;95641.13;;;-5.07;100.00
4598;BME280;62772;48.646;8.906;2024-01-16T10:04:48;95635.22;;;-5.03;100.00
4598;BME280;62772;48.646;8.906;2024-01-16T10:09:49;95632.19;;;-5.12;100.00
4598;BME280;62772;48.646;8.906;2024-01-16T10:14:49;95637.41;;;-5.12;100.00
4598;BME280;62772;48.646;8.906;2024-01-16T10:19:52;95633.00;;;-4.99;100.00
4598;BME280;62772;48.646;8.906;2024-01-16T10:25:12;95628.22;;;-4.90;100.00
4598;BME280;62772;48.646;8.906;2024-01-16T10:30:21;95613.81;;;-4.81;100.00
4598;BME280;62772;48.646;8.906;2024-01-16T10:35:23;95609.47;;;-4.64;100.00
4598;BME280;62772;48.646;8.906;2024-01-16T10:40:24;95614.31;;;-4.56;100.00
4598;BME280;62772;48.646;8.906;2024-01-16T10:45:33;95606.47;;;-4.44;100.00
4598;BME280;62772;48.646;8.906;2024-01-16T10:50:35;95598.75;;;-4.39;100.00
4598;BME280;62772;48.646;8.906;2024-01-16T10:55:52;95599.13;;;-4.18;100.00
4598;BME280;62772;48.646;8.906;2024-01-16T11:00:53;95612.63;;;-4.21;100.00
4598;BME280;62772;48.646;8.906;2024-01-16T11:05:57;95605.75;;;-3.81;100.00
4598;BME280;62772;48.646;8.906;2024-01-16T11:10:59;95592.47;;;-3.80;100.00
4598;BME280;62772;48.646;8.906;2024-01-16T11:16:05;95588.09;;;-3.74;100.00
4598;BME280;62772;48.646;8.906;2024-01-16T11:21:09;95582.97;;;-3.69;100.00
4598;BME280;62772;48.646;8.906;2024-01-16T11:26:56;95587.72;;;-3.66;100.00
4598;BME280;62772;48.646;8.906;2024-01-16T11:31:50;95567.06;;;-3.68;100.00
4598;BME280;62772;48.646;8.906;2024-01-16T11:36:53;95563.91;;;-3.70;100.00
4598;BME280;62772;48.646;8.906;2024-01-16T11:41:57;95553.69;;;-3.37;100.00
4598;BME280;62772;48.646;8.906;2024-01-16T11:47:02;95543.47;;;-3.39;100.00
4598;BME280;62772;48.646;8.906;2024-01-16T11:52:03;95536.50;;;-3.33;100.00
4598;BME280;62772;48.646;8.906;2024-01-16T12:02:21;95500.16;;;-3.18;100.00
4598;BME280;62772;48.646;8.906;2024-01-16T12:07:24;95492.81;;;-3.21;100.00
4598;BME280;62772;48.646;8.906;2024-01-16T12:12:24;95497.06;;;-3.15;100.00
4598;BME280;62772;48.646;8.906;2024-01-16T12:17:25;95484.34;;;-3.06;100.00
4598;BME280;62772;48.646;8.906;2024-01-16T12:22:25;95478.41;;;-3.01;100.00
4598;BME280;62772;48.646;8.906;2024-01-16T12:27:25;95476.91;;;-2.97;100.00
4598;BME280;62772;48.646;8.906;2024-01-16T12:32:26;95469.06;;;-2.97;100.00
4598;BME280;62772;48.646;8.906;2024-01-16T12:37:28;95456.59;;;-2.90;100.00
4598;BME280;62772;48.646;8.906;2024-01-16T12:42:28;95449.59;;;-2.84;100.00
4598;BME280;62772;48.646;8.906;2024-01-16T12:47:29;95443.16;;;-2.77;100.00
4598;BME280;62772;48.646;8.906;2024-01-16T12:52:30;95445.81;;;-2.71;100.00
4598;BME280;62772;48.646;8.906;2024-01-16T12:57:32;95441.59;;;-2.72;100.00
4598;BME280;62772;48.646;8.906;2024-01-16T13:02:32;95426.28;;;-2.64;100.00
4598;BME280;62772;48.646;8.906;2024-01-16T13:07:33;95427.59;;;-2.61;100.00
4598;BME280;62772;48.646;8.906;2024-01-16T13:12:34;95425.97;;;-2.67;100.00
4598;BME280;62772;48.646;8.906;2024-01-16T13:17:35;95420.81;;;-2.62;100.00
4598;BME280;62772;48.646;8.906;2024-01-16T13:22:36;95418.97;;;-2.62;100.00
4598;BME280;62772;48.646;8.906;2024-01-16T13:27:36;95417.09;;;-2.66;100.00
4598;BME280;62772;48.646;8.906;2024-01-16T13:32:37;95413.75;;;-2.62;100.00
4598;BME280;62772;48.646;8.906;2024-01-16T13:37:37;95416.88;;;-2.60;100.00
4598;BME280;62772;48.646;8.906;2024-01-16T13:42:38;95402.50;;;-2.62;100.00
4598;BME280;62772;48.646;8.906;2024-01-16T13:47:39;95397.09;;;-2.50;100.00
4598;BME280;62772;48.646;8.906;2024-01-16T13:52:40;95390.28;;;-2.51;100.00
4598;BME280;62772;48.646;8.906;2024-01-16T13:57:41;95390.00;;;-2.55;100.00
4598;BME280;62772;48.646;8.906;2024-01-16T14:02:43;95398.09;;;-2.57;100.00
4598;BME280;62772;48.646;8.906;2024-01-16T14:07:45;95383.81;;;-2.44;100.00
4598;BME280;62772;48.646;8.906;2024-01-16T14:12:51;95376.16;;;-2.56;100.00
4598;BME280;62772;48.646;8.906;2024-01-16T14:17:53;95378.00;;;-2.56;100.00
4598;BME280;62772;48.646;8.906;2024-01-16T14:22:54;95387.72;;;-2.46;100.00
4598;BME280;62772;48.646;8.906;2024-01-16T14:27:57;95380.22;;;-2.38;100.00
4598;BME280;62772;48.646;8.906;2024-01-16T14:32:58;95369.69;;;-2.48;100.00
4598;BME280;62772;48.646;8.906;2024-01-16T14:37:58;95367.56;;;-2.51;100.00
4598;BME280;62772;48.646;8.906;2024-01-16T14:42:59;95352.41;;;-2.49;100.00
4598;BME280;62772;48.646;8.906;2024-01-16T14:48:04;95361.88;;;-2.75;100.00
4598;BME280;62772;48.646;8.906;2024-01-16T14:53:05;95368.19;;;-2.71;100.00
4598;BME280;62772;48.646;8.906;2024-01-16T14:58:06;95368.53;;;-2.62;100.00
4598;BME280;62772;48.646;8.906;2024-01-16T15:03:09;95367.41;;;-2.71;100.00
4598;BME280;62772;48.646;8.906;2024-01-16T15:08:09;95366.47;;;-2.87;100.00
4598;BME280;62772;48.646;8.906;2024-01-16T15:13:10;95383.22;;;-2.83;100.00
4598;BME280;62772;48.646;8.906;2024-01-16T15:18:12;95375.28;;;-2.94;100.00
4598;BME280;62772;48.646;8.906;2024-01-16T15:23:13;95379.44;;;-2.98;100.00
4598;BME280;62772;48.646;8.906;2024-01-16T15:28:14;95379.09;;;-3.06;100.00
4598;BME280;62772;48.646;8.906;2024-01-16T15:33:14;95373.34;;;-3.08;100.00
4598;BME280;62772;48.646;8.906;2024-01-16T15:38:15;95375.38;;;-3.11;100.00
4598;BME280;62772;48.646;8.906;2024-01-16T15:43:15;95367.44;;;-3.48;100.00
4598;BME280;62772;48.646;8.906;2024-01-16T15:48:16;95370.72;;;-3.97;100.00
4598;BME280;62772;48.646;8.906;2024-01-16T15:53:16;95363.81;;;-4.25;100.00
4598;BME280;62772;48.646;8.906;2024-01-16T15:58:16;95370.44;;;-4.01;100.00
4598;BME280;62772;48.646;8.906;2024-01-16T16:03:17;95375.88;;;-4.87;100.00
4598;BME280;62772;48.646;8.906;2024-01-16T16:08:18;95397.09;;;-5.12;100.00
4598;BME280;62772;48.646;8.906;2024-01-16T16:13:20;95392.97;;;-5.37;100.00
4598;BME280;62772;48.646;8.906;2024-01-16T16:18:20;95398.25;;;-5.60;100.00
4598;BME280;62772;48.646;8.906;2024-01-16T16:23:21;95391.63;;;-5.39;100.00
4598;BME280;62772;48.646;8.906;2024-01-16T16:28:21;95388.91;;;-5.85;100.00
4598;BME280;62772;48.646;8.906;2024-01-16T16:33:22;95391.28;;;-5.95;100.00
4598;BME280;62772;48.646;8.906;2024-01-16T16:38:22;95400.72;;;-6.30;100.00
4598;BME280;62772;48.646;8.906;2024-01-16T16:43:23;95408.13;;;-6.57;100.00
4598;BME280;62772;48.646;8.906;2024-01-16T16:48:23;95403.81;;;-6.87;100.00
4598;BME280;62772;48.646;8.906;2024-01-16T16:53:24;95401.38;;;-6.58;100.00
4598;BME280;62772;48.646;8.906;2024-01-16T16:58:25;95390.53;;;-7.09;100.00
4598;BME280;62772;48.646;8.906;2024-01-16T17:03:25;95391.72;;;-7.54;100.00
4598;BME280;62772;48.646;8.906;2024-01-16T17:08:25;95388.69;;;-7.51;100.00
4598;BME280;62772;48.646;8.906;2024-01-16T17:13:27;95377.88;;;-7.66;100.00
4598;BME280;62772;48.646;8.906;2024-01-16T17:18:32;95382.44;;;-7.80;100.00
4598;BME280;62772;48.646;8.906;2024-01-16T17:23:37;95383.78;;;-8.14;100.00
4598;BME280;62772;48.646;8.906;2024-01-16T17:28:38;95376.28;;;-7.49;100.00
4598;BME280;62772;48.646;8.906;2024-01-16T17:33:38;95375.53;;;-8.05;100.00
4598;BME280;62772;48.646;8.906;2024-01-16T17:38:39;95368.94;;;-7.70;100.00
4598;BME280;62772;48.646;8.906;2024-01-16T17:43:42;95372.50;;;-8.64;100.00
4598;BME280;62772;48.646;8.906;2024-01-16T17:48:42;95358.63;;;-8.69;100.00
4598;BME280;62772;48.646;8.906;2024-01-16T17:53:43;95356.72;;;-8.81;100.00
4598;BME280;62772;48.646;8.906;2024-01-16T17:58:44;95348.41;;;-8.64;100.00
4598;BME280;62772;48.646;8.906;2024-01-16T18:03:44;95346.03;;;-8.91;100.00
4598;BME280;62772;48.646;8.906;2024-01-16T18:08:47;95346.00;;;-8.84;100.00
4598;BME280;62772;48.646;8.906;2024-01-16T18:13:49;95343.00;;;-9.13;100.00
4598;BME280;62772;48.646;8.906;2024-01-16T18:18:49;95349.44;;;-9.54;100.00
4598;BME280;62772;48.646;8.906;2024-01-16T18:23:51;95343.00;;;-9.45;100.00
4598;BME280;62772;48.646;8.906;2024-01-16T18:28:52;95334.97;;;-9.30;100.00
4598;BME280;62772;48.646;8.906;2024-01-16T18:33:54;95324.38;;;-9.54;100.00
4598;BME280;62772;48.646;8.906;2024-01-16T18:38:54;95324.44;;;-9.67;100.00
4598;BME280;62772;48.646;8.906;2024-01-16T18:43:55;95323.66;;;-9.68;100.00
4598;BME280;62772;48.646;8.906;2024-01-16T18:48:55;95316.22;;;-9.89;100.00
4598;BME280;62772;48.646;8.906;2024-01-16T18:53:56;95303.13;;;-10.01;100.00
4598;BME280;62772;48.646;8.906;2024-01-16T18:58:56;95289.69;;;-9.71;100.00
4598;BME280;62772;48.646;8.906;2024-01-16T19:03:57;95286.50;;;-10.12;100.00
4598;BME280;62772;48.646;8.906;2024-01-16T19:08:58;95289.69;;;-10.16;100.00
4598;BME280;62772;48.646;8.906;2024-01-16T19:13:59;95277.63;;;-10.23;100.00
4598;BME280;62772;48.646;8.906;2024-01-16T19:18:59;95278.38;;;-10.15;100.00
4598;BME280;62772;48.646;8.906;2024-01-16T19:24:00;95264.91;;;-10.31;100.00
4598;BME280;62772;48.646;8.906;2024-01-16T19:29:00;95242.16;;;-10.41;100.00
4598;BME280;62772;48.646;8.906;2024-01-16T19:34:01;95248.00;;;-10.20;100.00
4598;BME280;62772;48.646;8.906;2024-01-16T19:39:02;95243.75;;;-10.40;100.00
4598;BME280;62772;48.646;8.906;2024-01-16T19:44:03;95228.53;;;-10.61;100.00
4598;BME280;62772;48.646;8.906;2024-01-16T19:49:03;95223.31;;;-10.09;100.00
4598;BME280;62772;48.646;8.906;2024-01-16T19:54:08;95211.47;;;-10.62;100.00
4598;BME280;62772;48.646;8.906;2024-01-16T19:59:08;95217.03;;;-10.65;100.00
4598;BME280;62772;48.646;8.906;2024-01-16T20:04:10;95200.16;;;-10.68;100.00
4598;BME280;62772;48.646;8.906;2024-01-16T20:09:10;95194.63;;;-10.71;100.00
4598;BME280;62772;48.646;8.906;2024-01-16T20:14:11;95181.28;;;-10.23;100.00
4598;BME280;62772;48.646;8.906;2024-01-16T20:19:13;95177.75;;;-9.97;100.00
4598;BME280;62772;48.646;8.906;2024-01-16T20:24:13;95178.22;;;-10.45;100.00
4598;BME280;62772;48.646;8.906;2024-01-16T20:29:14;95175.06;;;-10.92;100.00
4598;BME280;62772;48.646;8.906;2024-01-16T20:34:14;95177.53;;;-10.59;100.00
4598;BME280;62772;48.646;8.906;2024-01-16T20:39:15;95166.59;;;-10.54;100.00
4598;BME280;62772;48.646;8.906;2024-01-16T20:44:16;95161.66;;;-10.69;100.00
4598;BME280;62772;48.646;8.906;2024-01-16T20:49:22;95160.25;;;-10.59;100.00
4598;BME280;62772;48.646;8.906;2024-01-16T20:54:23;95164.97;;;-10.49;100.00
4598;BME280;62772;48.646;8.906;2024-01-16T20:59:24;95152.53;;;-10.65;100.00
4598;BME280;62772;48.646;8.906;2024-01-16T21:04:24;95147.91;;;-10.56;100.00
4598;BME280;62772;48.646;8.906;2024-01-16T21:09:28;95135.09;;;-10.06;100.00
4598;BME280;62772;48.646;8.906;2024-01-16T21:14:28;95121.31;;;-9.68;100.00
4598;BME280;62772;48.646;8.906;2024-01-16T21:19:29;95113.97;;;-9.09;100.00
4598;BME280;62772;48.646;8.906;2024-01-16T21:24:29;95115.13;;;-9.23;100.00
4598;BME280;62772;48.646;8.906;2024-01-16T21:29:30;95123.28;;;-9.45;100.00
4598;BME280;62772;48.646;8.906;2024-01-16T21:34:31;95122.69;;;-10.23;100.00
4598;BME280;62772;48.646;8.906;2024-01-16T21:39:32;95111.19;;;-9.95;100.00
4598;BME280;62772;48.646;8.906;2024-01-16T21:44:35;95095.19;;;-9.60;100.00
4598;BME280;62772;48.646;8.906;2024-01-16T21:49:35;95091.13;;;-9.74;100.00
4598;BME280;62772;48.646;8.906;2024-01-16T21:54:36;95078.50;;;-10.08;100.00
4598;BME280;62772;48.646;8.906;2024-01-16T21:59:36;95076.34;;;-10.36;100.00
4598;BME280;62772;48.646;8.906;2024-01-16T22:04:37;95076.47;;;-10.56;100.00
4598;BME280;62772;48.646;8.906;2024-01-16T22:09:37;95071.00;;;-10.73;100.00
4598;BME280;62772;48.646;8.906;2024-01-16T22:14:38;95057.13;;;-10.72;100.00
4598;BME280;62772;48.646;8.906;2024-01-16T22:19:38;95050.69;;;-10.63;100.00
4598;BME280;62772;48.646;8.906;2024-01-16T22:24:39;95037.38;;;-10.09;100.00
4598;BME280;62772;48.646;8.906;2024-01-16T22:29:39;95037.50;;;-10.23;100.00
4598;BME280;62772;48.646;8.906;2024-01-16T22:34:40;95031.78;;;-10.31;100.00
4598;BME280;62772;48.646;8.906;2024-01-16T22:39:40;95024.59;;;-10.23;100.00
4598;BME280;62772;48.646;8.906;2024-01-16T22:44:44;95025.22;;;-9.83;100.00
4598;BME280;62772;48.646;8.906;2024-01-16T22:49:44;95022.72;;;-9.90;100.00
4598;BME280;62772;48.646;8.906;2024-01-16T22:54:45;95011.19;;;-9.88;100.00
4598;BME280;62772;48.646;8.906;2024-01-16T22:59:45;95006.25;;;-9.52;100.00
4598;BME280;62772;48.646;8.906;2024-01-16T23:04:46;95006.50;;;-9.79;100.00
4598;BME280;62772;48.646;8.906;2024-01-16T23:09:46;95004.44;;;-9.70;100.00
4598;BME280;62772;48.646;8.906;2024-01-16T23:14:47;94992.38;;;-9.58;100.00
4598;BME280;62772;48.646;8.906;2024-01-16T23:19:48;94979.91;;;-9.31;100.00
4598;BME280;62772;48.646;8.906;2024-01-16T23:24:49;94951.44;;;-9.42;100.00
4598;BME280;62772;48.646;8.906;2024-01-16T23:29:49;94938.75;;;-9.14;100.00
4598;BME280;62772;48.646;8.906;2024-01-16T23:34:50;94934.72;;;-9.09;100.00
4598;BME280;62772;48.646;8.906;2024-01-16T23:39:53;94923.19;;;-9.25;100.00
4598;BME280;62772;48.646;8.906;2024-01-16T23:44:54;94917.50;;;-8.62;100.00
4598;BME280;62772;48.646;8.906;2024-01-16T23:49:57;94900.59;;;-8.64;100.00
4598;BME280;62772;48.646;8.906;2024-01-16T23:54:58;94903.53;;;-8.84;100.00
